Time;durP1;ratioP1;P1;durP2;ratioP2;P2;SDS_P1;SDS_P2;PMS_P1;PMS_P2;Temp;Humidity;BMP_temperature;BMP_pressure;BME280_temperature;BME280_humidity;BME280_pressure;Samples;Min_cycle;Max_cycle;Signal;HPM_P1;HPM_P2
2023/10/13 00:02:06;;;;;;;12.37;8.80;;;17.60;99.90;;;;;;5045520;28;20694;-83
2023/10/13 00:04:35;;;;;;;16.03;10.07;;;17.50;99.90;;;;;;5045949;28;20193;-81
2023/10/13 00:07:02;;;;;;;12.80;8.87;;;17.50;99.90;;;;;;5044010;28;20661;-80
2023/10/13 00:09:38;;;;;;;15.23;10.20;;;17.50;99.90;;;;;;5043957;28;20461;-83
2023/10/13 00:12:09;;;;;;;11.20;10.00;;;17.50;99.90;;;;;;5043370;28;20481;-83
2023/10/13 00:14:35;;;;;;;12.40;10.00;;;17.50;99.90;;;;;;5044035;28;20529;-80
2023/10/13 00:17:05;;;;;;;16.37;9.43;;;17.50;99.90;;;;;;5044990;28;20407;-83
2023/10/13 00:19:37;;;;;;;16.13;9.63;;;17.40;99.90;;;;;;5077684;28;21022;-83
2023/10/13 00:22:09;;;;;;;17.00;9.33;;;17.40;99.90;;;;;;5045265;28;20395;-83
2023/10/13 00:24:42;;;;;;;14.40;9.30;;;17.40;99.90;;;;;;5045360;28;20774;-83
2023/10/13 00:27:36;;;;;;;13.93;8.70;;;17.40;99.90;;;;;;5046861;28;20618;-80
2023/10/13 00:30:22;;;;;;;10.80;8.90;;;17.30;99.90;;;;;;5049299;28;20544;-79
2023/10/13 00:32:55;;;;;;;14.30;10.87;;;17.30;99.90;;;;;;5048866;28;20763;-80
2023/10/13 00:35:25;;;;;;;13.63;9.90;;;17.30;99.90;;;;;;5047692;28;20611;-81
2023/10/13 00:37:54;;;;;;;11.70;9.20;;;17.30;99.90;;;;;;5049187;28;20888;-83
2023/10/13 00:43:28;;;;;;;17.97;9.67;;;17.30;99.90;;;;;;5048768;28;20407;-83
2023/10/13 00:45:43;;;;;;;17.67;9.77;;;17.40;99.90;;;;;;5047080;28;20480;-80
2023/10/13 00:48:12;;;;;;;18.20;9.60;;;17.30;99.90;;;;;;5047076;28;20718;-83
2023/10/13 00:50:37;;;;;;;14.63;9.50;;;17.30;99.90;;;;;;5048349;28;20441;-83
2023/10/13 00:53:04;;;;;;;13.07;9.77;;;17.30;99.90;;;;;;5047088;28;20466;-82
2023/10/13 00:55:33;;;;;;;15.50;9.10;;;17.30;99.90;;;;;;5080437;28;20224;-83
2023/10/13 00:58:03;;;;;;;15.53;10.20;;;17.30;99.90;;;;;;5048219;28;20407;-84
2023/10/13 01:00:29;;;;;;;10.90;9.20;;;17.30;99.90;;;;;;5047003;28;20478;-80
2023/10/13 01:02:56;;;;;;;11.00;8.30;;;17.20;99.90;;;;;;5047203;28;20783;-83
2023/10/13 01:05:25;;;;;;;12.43;9.50;;;17.20;99.90;;;;;;5047880;28;20814;-84
2023/10/13 01:07:54;;;;;;;18.43;10.60;;;17.20;99.90;;;;;;5046792;28;20504;-84
2023/10/13 01:10:25;;;;;;;15.50;9.60;;;17.10;99.90;;;;;;5047227;28;20430;-80
2023/10/13 01:12:52;;;;;;;12.20;9.47;;;17.10;99.90;;;;;;5048043;28;20559;-84
2023/10/13 01:15:21;;;;;;;21.93;9.37;;;17.10;99.90;;;;;;5048357;28;21076;-83
2023/10/13 01:17:48;;;;;;;14.70;8.73;;;17.00;99.90;;;;;;5046767;28;20520;-80
2023/10/13 01:20:24;;;;;;;13.77;9.87;;;17.10;99.90;;;;;;5046450;28;20450;-84
2023/10/13 01:22:55;;;;;;;12.33;9.27;;;17.10;99.90;;;;;;5046816;28;20426;-83
2023/10/13 01:25:28;;;;;;;11.90;9.37;;;17.10;99.90;;;;;;5047720;28;20441;-81
2023/10/13 01:27:54;;;;;;;12.90;9.40;;;17.10;99.90;;;;;;5047111;28;20435;-80
2023/10/13 01:30:24;;;;;;;12.20;9.83;;;17.10;99.90;;;;;;5047836;28;20771;-83
2023/10/13 01:32:51;;;;;;;13.30;10.00;;;17.10;99.90;;;;;;5047847;28;20475;-84
2023/10/13 01:35:41;;;;;;;12.00;9.33;;;17.10;99.90;;;;;;5047775;28;20580;-80
2023/10/13 01:38:06;;;;;;;14.60;8.97;;;17.10;99.90;;;;;;5047226;28;20434;-80
2023/10/13 01:40:34;;;;;;;14.90;10.10;;;17.10;99.90;;;;;;5047663;28;20953;-79
2023/10/13 01:43:01;;;;;;;16.03;10.43;;;17.10;99.90;;;;;;5046238;28;20233;-80
2023/10/13 01:45:29;;;;;;;12.07;9.00;;;17.10;99.90;;;;;;5047238;28;20441;-84
2023/10/13 01:47:55;;;;;;;15.47;10.77;;;17.20;99.90;;;;;;5046609;28;20410;-80
2023/10/13 01:50:29;;;;;;;13.57;9.10;;;17.20;99.90;;;;;;5045978;28;20454;-80
2023/10/13 01:53:14;;;;;;;18.57;10.37;;;17.10;99.90;;;;;;5047376;28;20470;-84
2023/10/13 01:55:43;;;;;;;14.10;9.77;;;17.10;99.90;;;;;;5047535;28;20431;-80
2023/10/13 01:58:15;;;;;;;12.60;9.60;;;17.10;99.90;;;;;;5047510;28;20418;-84
2023/10/13 02:00:45;;;;;;;14.63;9.27;;;17.10;99.90;;;;;;5047026;28;20431;-79
2023/10/13 02:03:18;;;;;;;10.10;8.13;;;17.20;99.90;;;;;;5047306;28;20408;-80
2023/10/13 02:05:48;;;;;;;12.80;8.57;;;17.10;99.90;;;;;;5078791;28;20477;-80
2023/10/13 02:08:24;;;;;;;16.97;10.43;;;17.10;99.90;;;;;;5045631;28;20850;-80
2023/10/13 02:10:54;;;;;;;13.33;9.67;;;17.10;99.90;;;;;;5046636;28;20466;-80
2023/10/13 02:13:22;;;;;;;15.27;10.40;;;17.20;99.90;;;;;;5046912;28;20458;-79
2023/10/13 02:15:52;;;;;;;13.97;9.40;;;17.20;99.90;;;;;;5046914;28;20445;-84
2023/10/13 02:18:41;;;;;;;19.73;10.30;;;17.20;99.90;;;;;;5047123;28;20406;-83
2023/10/13 02:21:12;;;;;;;16.23;10.17;;;17.10;99.90;;;;;;5047040;28;20564;-83
2023/10/13 02:23:45;;;;;;;18.67;9.83;;;17.10;99.90;;;;;;5047173;28;21061;-83
2023/10/13 02:26:15;;;;;;;11.50;8.57;;;17.20;99.90;;;;;;5045340;28;20668;-79
2023/10/13 02:28:41;;;;;;;12.80;9.60;;;17.10;99.90;;;;;;5045580;28;20840;-79
2023/10/13 02:31:07;;;;;;;12.67;9.30;;;17.10;99.90;;;;;;5046411;28;20442;-79
2023/10/13 02:33:34;;;;;;;16.13;10.53;;;17.10;99.90;;;;;;5046681;28;20695;-79
2023/10/13 02:36:05;;;;;;;15.03;9.03;;;17.00;99.90;;;;;;5045076;28;20220;-79
2023/10/13 02:38:42;;;;;;;13.50;9.90;;;17.00;99.90;;;;;;5046548;28;20399;-79
2023/10/13 02:41:28;;;;;;;13.20;9.67;;;17.00;99.90;;;;;;5046580;28;20437;-80
2023/10/13 02:43:55;;;;;;;12.30;9.67;;;16.90;99.90;;;;;;5078937;28;20821;-83
2023/10/13 02:46:21;;;;;;;12.57;9.00;;;16.90;99.90;;;;;;5077493;28;20854;-80
2023/10/13 02:48:53;;;;;;;14.03;9.67;;;16.80;99.90;;;;;;5046346;28;20455;-82
2023/10/13 02:51:35;;;;;;;14.53;11.00;;;16.80;99.90;;;;;;5044572;28;20985;-79
2023/10/13 02:54:10;;;;;;;15.43;9.60;;;16.70;99.90;;;;;;5046409;28;20473;-83
2023/10/13 02:56:36;;;;;;;16.03;11.27;;;16.70;99.90;;;;;;5046612;28;20574;-79
2023/10/13 02:59:05;;;;;;;14.77;10.50;;;16.70;99.90;;;;;;5046612;28;20498;-83
2023/10/13 03:01:35;;;;;;;17.83;10.33;;;16.70;99.90;;;;;;5046480;28;21002;-79
2023/10/13 03:04:12;;;;;;;10.67;9.03;;;16.70;99.90;;;;;;5046646;28;20422;-79
2023/10/13 03:06:41;;;;;;;13.90;11.10;;;16.60;99.90;;;;;;5046266;28;20928;-83
2023/10/13 03:09:18;;;;;;;18.27;10.10;;;16.60;99.90;;;;;;5044649;28;20415;-79
2023/10/13 03:11:51;;;;;;;11.23;9.43;;;16.60;99.90;;;;;;5045567;28;20500;-83
2023/10/13 03:14:31;;;;;;;16.77;11.03;;;16.60;99.90;;;;;;5046039;28;20418;-83
2023/10/13 03:17:14;;;;;;;13.53;10.53;;;16.50;99.90;;;;;;5045854;28;20426;-79
2023/10/13 03:19:46;;;;;;;18.50;12.57;;;16.50;99.90;;;;;;5045178;28;20492;-79
2023/10/13 03:22:15;;;;;;;15.30;10.73;;;16.50;99.90;;;;;;5045773;28;20430;-79
2023/10/13 03:24:47;;;;;;;26.53;13.13;;;16.50;99.90;;;;;;5045888;28;20477;-80
2023/10/13 03:27:17;;;;;;;15.60;11.10;;;16.50;99.90;;;;;;5044548;28;20439;-79
2023/10/13 03:29:46;;;;;;;14.17;10.60;;;16.50;99.90;;;;;;5046054;28;20468;-83
2023/10/13 03:32:14;;;;;;;14.00;10.70;;;16.40;99.90;;;;;;5045445;28;20420;-83
2023/10/13 03:34:49;;;;;;;20.70;11.40;;;16.40;99.90;;;;;;5045879;28;20927;-83
2023/10/13 03:37:24;;;;;;;14.67;10.27;;;16.50;99.90;;;;;;5045610;28;20493;-83
2023/10/13 03:39:51;;;;;;;15.33;10.47;;;16.50;99.90;;;;;;5044580;28;20959;-79
2023/10/13 03:42:21;;;;;;;13.40;10.67;;;16.40;99.90;;;;;;5044280;28;20458;-80
2023/10/13 03:44:47;;;;;;;24.73;10.90;;;16.50;99.90;;;;;;5045718;28;20438;-83
2023/10/13 03:47:26;;;;;;;18.50;10.43;;;16.50;99.90;;;;;;5043943;28;20573;-82
2023/10/13 03:50:14;;;;;;;18.33;10.77;;;16.50;99.90;;;;;;5044690;28;20600;-83
2023/10/13 03:52:38;;;;;;;17.50;10.47;;;16.60;99.90;;;;;;5040283;28;20509;-83
2023/10/13 03:55:05;;;;;;;15.13;11.13;;;16.60;99.90;;;;;;5073825;28;20455;-83
2023/10/13 03:57:37;;;;;;;12.57;9.97;;;16.60;99.90;;;;;;5032608;28;20194;-79
2023/10/13 04:00:19;;;;;;;14.50;11.20;;;16.60;99.90;;;;;;5032664;28;20757;-79
2023/10/13 04:02:52;;;;;;;16.50;11.20;;;16.50;99.90;;;;;;5042193;28;20483;-83
2023/10/13 04:05:35;;;;;;;14.33;10.33;;;16.50;99.90;;;;;;5056452;28;20537;-83
2023/10/13 04:24:18;;;;;;;13.10;10.73;;;16.40;99.90;;;;;;5049245;28;20409;-83
2023/10/13 04:32:15;;;;;;;16.60;9.97;;;16.30;99.90;;;;;;5052374;28;20421;-83
2023/10/13 04:34:45;;;;;;;20.47;10.60;;;16.30;99.90;;;;;;5047774;28;20438;-79
2023/10/13 04:37:32;;;;;;;24.13;11.03;;;16.30;99.90;;;;;;5046973;28;20525;-78
2023/10/13 04:40:11;;;;;;;16.30;11.50;;;16.30;99.90;;;;;;5048321;28;20441;-79
2023/10/13 04:42:49;;;;;;;14.60;10.00;;;16.30;99.90;;;;;;5048780;28;20410;-79
2023/10/13 04:45:46;;;;;;;15.90;9.40;;;16.30;99.90;;;;;;5047340;28;20446;-83
2023/10/13 04:48:27;;;;;;;14.73;10.97;;;16.30;99.90;;;;;;5047034;28;20736;-83
2023/10/13 04:51:23;;;;;;;16.37;11.27;;;16.30;99.90;;;;;;5044881;28;20465;-79
2023/10/13 04:59:35;;;;;;;15.07;10.50;;;16.30;99.90;;;;;;5047165;28;20414;-81
2023/10/13 05:02:42;;;;;;;15.00;10.10;;;16.20;99.90;;;;;;5046598;28;20427;-83
2023/10/13 05:46:35;;;;;;;15.40;11.40;;;16.40;99.90;;;;;;5025420;28;20577;-79
2023/10/13 06:29:57;;;;;;;16.93;11.97;;;17.00;99.90;;;;;;5028142;28;20457;-78
2023/10/13 06:32:26;;;;;;;15.60;13.03;;;16.90;99.90;;;;;;5040507;28;20851;-78
2023/10/13 06:34:57;;;;;;;17.10;12.10;;;16.90;99.90;;;;;;5035966;28;20209;-78
2023/10/13 06:37:30;;;;;;;16.77;10.77;;;16.90;99.90;;;;;;5041968;28;20437;-81
2023/10/13 06:40:06;;;;;;;15.70;12.60;;;16.90;99.90;;;;;;5043763;28;20439;-81
2023/10/13 06:42:34;;;;;;;16.53;11.57;;;17.00;99.90;;;;;;5036044;28;20608;-81
2023/10/13 06:45:08;;;;;;;24.33;13.07;;;17.10;99.90;;;;;;5026040;28;20443;-80
2023/10/13 06:47:39;;;;;;;17.23;11.80;;;17.10;99.90;;;;;;5038610;28;20466;-81
2023/10/13 06:50:15;;;;;;;17.93;11.83;;;17.20;99.90;;;;;;5039895;28;20447;-81
2023/10/13 06:52:45;;;;;;;16.80;12.90;;;17.20;99.90;;;;;;5041277;28;21041;-78
2023/10/13 06:55:18;;;;;;;17.63;12.90;;;17.20;99.90;;;;;;5040311;28;20538;-80
2023/10/13 06:57:46;;;;;;;18.80;13.77;;;17.30;99.90;;;;;;5040363;28;20503;-80
2023/10/13 07:03:06;;;;;;;19.13;13.30;;;17.40;99.90;;;;;;5030164;28;20427;-78
2023/10/13 07:05:39;;;;;;;20.27;12.70;;;17.50;99.90;;;;;;5029742;28;20462;-80
2023/10/13 07:08:06;;;;;;;19.90;12.60;;;17.60;99.90;;;;;;5068480;28;21124;-81
2023/10/13 07:10:44;;;;;;;19.03;11.43;;;17.60;99.90;;;;;;5027401;28;20481;-81
2023/10/13 07:13:13;;;;;;;20.70;12.70;;;17.70;99.90;;;;;;5077946;28;20504;-80
2023/10/13 07:15:44;;;;;;;20.40;10.83;;;17.80;99.90;;;;;;5034764;28;20968;-81
2023/10/13 07:18:13;;;;;;;19.73;12.77;;;17.90;99.90;;;;;;5036386;28;20509;-81
2023/10/13 07:20:43;;;;;;;18.17;12.90;;;18.00;99.90;;;;;;5039147;28;20509;-80
2023/10/13 07:23:17;;;;;;;16.27;12.00;;;18.10;99.90;;;;;;5038694;28;20445;-82
2023/10/13 07:25:55;;;;;;;16.70;13.63;;;18.10;99.90;;;;;;5039643;28;20443;-79
2023/10/13 07:28:22;;;;;;;17.67;12.73;;;18.20;99.90;;;;;;5040015;28;20425;-81
2023/10/13 07:33:19;;;;;;;17.90;12.87;;;18.30;99.90;;;;;;5021279;28;20527;-79
2023/10/13 07:35:59;;;;;;;16.57;12.40;;;18.40;99.90;;;;;;5020391;28;20529;-82
2023/10/13 07:38:30;;;;;;;15.13;10.80;;;18.60;99.90;;;;;;5031873;28;20429;-83
2023/10/13 07:40:59;;;;;;;16.77;12.10;;;18.80;99.90;;;;;;5035829;28;20853;-83
2023/10/13 07:43:27;;;;;;;14.63;11.00;;;19.00;99.90;;;;;;5036698;28;20437;-83
2023/10/13 07:45:58;;;;;;;19.40;12.30;;;19.10;99.90;;;;;;5037495;28;20498;-79
2023/10/13 07:48:25;;;;;;;16.87;12.07;;;19.30;99.90;;;;;;5030402;28;20426;-79
2023/10/13 07:51:15;;;;;;;17.50;12.07;;;19.60;99.90;;;;;;5033676;28;21038;-79
2023/10/13 07:53:43;;;;;;;19.80;13.60;;;20.00;99.90;;;;;;5038356;28;20637;-83
2023/10/13 07:56:11;;;;;;;19.23;11.83;;;20.40;99.90;;;;;;5037968;28;20435;-82
2023/10/13 07:58:52;;;;;;;20.43;12.80;;;21.00;99.90;;;;;;5043480;28;20427;-83
2023/10/13 08:01:18;;;;;;;18.23;10.47;;;21.50;99.90;;;;;;5033426;28;20668;-83
2023/10/13 08:03:45;;;;;;;18.60;12.73;;;22.10;99.90;;;;;;5028974;28;20422;-83
2023/10/13 08:08:39;;;;;;;17.77;11.63;;;23.00;99.90;;;;;;5036357;28;20561;-80
2023/10/13 08:14:10;;;;;;;16.10;10.40;;;24.10;99.90;;;;;;5039116;28;20481;-80
2023/10/13 08:16:52;;;;;;;15.67;10.37;;;24.70;99.90;;;;;;5040475;28;20432;-83
2023/10/13 08:19:26;;;;;;;15.60;10.83;;;25.30;99.90;;;;;;5036092;28;20437;-84
2023/10/13 08:22:14;;;;;;;12.13;9.10;;;25.60;99.90;;;;;;5030122;28;21130;-84
2023/10/13 08:48:12;;;;;;;13.87;9.10;;;25.50;99.90;;;;;;5033758;28;20797;-80
2023/10/13 08:53:26;;;;;;;17.73;10.17;;;25.20;99.90;;;;;;5032474;28;20802;-83
2023/10/13 08:58:59;;;;;;;12.53;9.80;;;24.90;99.90;;;;;;5030058;28;20609;-82
2023/10/13 09:01:14;;;;;;;14.60;10.00;;;24.90;99.90;;;;;;5035806;28;21029;-83
2023/10/13 09:03:42;;;;;;;11.00;8.97;;;24.90;99.90;;;;;;5037595;28;20425;-80
2023/10/13 09:06:19;;;;;;;16.83;9.20;;;24.80;99.90;;;;;;5029780;28;20505;-79
2023/10/13 09:09:05;;;;;;;13.10;9.43;;;24.80;99.90;;;;;;5035185;28;21130;-80
2023/10/13 09:11:49;;;;;;;12.70;9.87;;;24.70;99.90;;;;;;5035009;28;20470;-81
2023/10/13 09:14:35;;;;;;;14.27;11.03;;;24.60;99.90;;;;;;5034540;28;20501;-80
2023/10/13 09:19:57;;;;;;;18.70;10.60;;;24.40;99.90;;;;;;5020099;28;20473;-79
2023/10/13 09:22:28;;;;;;;18.10;10.60;;;24.40;99.90;;;;;;5033531;28;20426;-79
2023/10/13 09:24:58;;;;;;;12.17;9.63;;;24.30;99.90;;;;;;5038116;28;20557;-82
2023/10/13 09:27:26;;;;;;;17.27;9.80;;;24.40;99.90;;;;;;5035177;28;20433;-82
2023/10/13 09:30:21;;;;;;;14.00;9.93;;;24.40;99.90;;;;;;5028448;28;20450;-82
2023/10/13 09:32:51;;;;;;;14.20;9.80;;;24.40;99.90;;;;;;5034114;28;20477;-82
2023/10/13 09:35:27;;;;;;;11.73;8.40;;;24.40;99.90;;;;;;5032475;28;20442;-79
2023/10/13 09:37:56;;;;;;;12.63;9.20;;;24.30;99.90;;;;;;5040226;28;20446;-82
2023/10/13 09:40:38;;;;;;;11.83;9.57;;;24.20;99.90;;;;;;5035588;28;20591;-79
2023/10/13 09:43:07;;;;;;;13.67;8.90;;;24.20;99.90;;;;;;5036872;28;20786;-79
2023/10/13 09:45:38;;;;;;;12.93;8.93;;;24.20;99.90;;;;;;5039157;28;20481;-82
2023/10/13 09:48:21;;;;;;;17.30;8.37;;;24.20;99.90;;;;;;5032553;28;21038;-82
2023/10/13 09:50:48;;;;;;;14.40;8.57;;;24.20;99.90;;;;;;5040233;28;20455;-79
2023/10/13 09:53:18;;;;;;;13.60;9.70;;;24.30;99.90;;;;;;5031860;28;20474;-82
2023/10/13 09:55:49;;;;;;;15.57;9.00;;;24.30;99.90;;;;;;5041435;28;20483;-81
2023/10/13 09:58:18;;;;;;;19.40;9.43;;;24.40;99.90;;;;;;5033052;28;20771;-82
2023/10/13 10:00:59;;;;;;;13.83;9.00;;;24.40;99.90;;;;;;5035706;28;20442;-79
2023/10/13 10:06:39;;;;;;;14.07;8.80;;;24.60;99.90;;;;;;5040056;28;20942;-78
2023/10/13 10:09:10;;;;;;;16.83;9.20;;;24.60;99.90;;;;;;5021237;28;20584;-79
2023/10/13 10:12:21;;;;;;;12.10;8.47;;;24.40;99.90;;;;;;5035582;28;20496;-79
2023/10/13 10:14:56;;;;;;;10.33;8.60;;;24.60;99.90;;;;;;5021256;28;20890;-79
2023/10/13 10:17:23;;;;;;;14.83;9.57;;;24.60;99.90;;;;;;5042180;28;20434;-79
2023/10/13 10:19:56;;;;;;;11.53;8.40;;;24.70;99.90;;;;;;5055708;28;20841;-81
2023/10/13 10:22:36;;;;;;;13.37;9.23;;;24.70;99.90;;;;;;5033258;28;20542;-79
2023/10/13 10:25:03;;;;;;;12.47;8.57;;;24.90;99.90;;;;;;5036960;28;21002;-82
2023/10/13 10:27:30;;;;;;;15.93;9.80;;;24.90;99.90;;;;;;5038385;28;20443;-82
2023/10/13 10:29:57;;;;;;;12.83;10.07;;;25.00;99.90;;;;;;5032474;28;20498;-80
2023/10/13 10:32:34;;;;;;;12.87;9.37;;;25.10;99.90;;;;;;5034965;28;20430;-83
2023/10/13 10:35:07;;;;;;;13.47;9.40;;;25.20;99.90;;;;;;5041254;28;20484;-80
2023/10/13 10:37:34;;;;;;;11.80;9.17;;;25.30;99.90;;;;;;5038551;28;20485;-80
2023/10/13 10:40:05;;;;;;;15.23;9.40;;;25.40;99.90;;;;;;5067232;28;20462;-79
2023/10/13 10:42:31;;;;;;;14.37;9.00;;;25.40;99.90;;;;;;5037640;28;20434;-83
2023/10/13 10:45:05;;;;;;;12.70;9.13;;;25.50;99.90;;;;;;5039983;28;20438;-80
2023/10/13 10:47:31;;;;;;;16.77;9.03;;;25.60;99.90;;;;;;5039704;28;20423;-79
2023/10/13 10:50:07;;;;;;;13.37;8.60;;;25.70;99.90;;;;;;5041442;28;20460;-79
2023/10/13 10:52:37;;;;;;;13.67;8.10;;;25.70;99.90;;;;;;5040454;28;20959;-83
2023/10/13 10:55:13;;;;;;;11.10;8.33;;;25.70;99.90;;;;;;5039531;28;20995;-80
2023/10/13 10:57:43;;;;;;;12.37;7.90;;;25.80;99.90;;;;;;5042401;28;20876;-82
2023/10/13 11:00:25;;;;;;;12.10;8.60;;;25.90;99.90;;;;;;5067951;28;20495;-80
2023/10/13 11:02:57;;;;;;;11.77;8.43;;;25.90;99.90;;;;;;5036625;28;20716;-80
2023/10/13 11:05:32;;;;;;;14.50;7.93;;;25.90;99.90;;;;;;5039345;28;20449;-83
2023/10/13 11:07:58;;;;;;;11.60;7.37;;;26.00;99.90;;;;;;5038274;28;20457;-80
2023/10/13 11:10:31;;;;;;;8.83;6.97;;;26.10;99.90;;;;;;5038868;28;20469;-81
2023/10/13 11:13:13;;;;;;;11.00;7.90;;;26.10;99.90;;;;;;5039501;28;20709;-80
2023/10/13 11:15:44;;;;;;;11.23;7.57;;;26.20;99.90;;;;;;5041322;28;20497;-83
2023/10/13 11:18:16;;;;;;;10.70;8.30;;;26.20;99.90;;;;;;5062956;28;20438;-80
2023/10/13 11:20:44;;;;;;;9.30;7.50;;;26.20;99.90;;;;;;5029040;28;20461;-80
2023/10/13 11:23:13;;;;;;;10.33;7.37;;;26.30;99.90;;;;;;5035694;28;20782;-83
2023/10/13 11:25:39;;;;;;;10.50;6.80;;;26.30;99.90;;;;;;5029760;28;20507;-80
2023/10/13 11:28:17;;;;;;;10.73;8.20;;;26.30;99.90;;;;;;5033342;28;20781;-82
2023/10/13 11:30:49;;;;;;;8.40;7.07;;;26.30;99.90;;;;;;5030742;28;20966;-82
2023/10/13 11:33:19;;;;;;;12.40;7.00;;;26.30;99.90;;;;;;5060527;28;21209;-83
2023/10/13 11:38:26;;;;;;;8.43;6.50;;;26.30;99.90;;;;;;5036112;28;20520;-83
2023/10/13 11:46:14;;;;;;;13.10;6.70;;;26.40;99.90;;;;;;5022042;28;20489;-80
2023/10/13 11:48:46;;;;;;;9.27;6.60;;;26.40;99.90;;;;;;5031684;28;20477;-80
2023/10/13 11:51:32;;;;;;;13.00;6.83;;;26.40;99.90;;;;;;5062768;28;20647;-81
2023/10/13 11:53:58;;;;;;;11.50;7.73;;;26.50;99.90;;;;;;5037793;28;20473;-80
2023/10/13 11:56:24;;;;;;;11.70;7.27;;;26.60;99.90;;;;;;5038376;28;20444;-80
2023/10/13 11:58:50;;;;;;;9.37;7.53;;;26.60;99.90;;;;;;5035267;28;20426;-80
2023/10/13 12:11:42;;;;;;;10.23;6.33;;;26.70;99.90;;;;;;5029549;28;20472;-79
2023/10/13 12:16:53;;;;;;;8.67;6.37;;;26.80;99.90;;;;;;5021669;28;20758;-83
2023/10/13 12:19:27;;;;;;;10.43;7.30;;;26.80;99.90;;;;;;5047405;28;20455;-79
2023/10/13 12:21:56;;;;;;;10.20;6.30;;;26.90;99.90;;;;;;5058355;28;21047;-83
2023/10/13 12:27:20;;;;;;;8.27;5.87;;;27.00;99.90;;;;;;5044435;28;20634;-83
2023/10/13 12:29:53;;;;;;;11.67;6.43;;;26.90;99.90;;;;;;5044949;28;20446;-84
2023/10/13 12:32:25;;;;;;;10.23;7.03;;;26.90;99.90;;;;;;5049430;28;20458;-83
2023/10/13 12:35:16;;;;;;;7.63;6.83;;;26.90;99.90;;;;;;5041668;28;20455;-83
2023/10/13 12:51:21;;;;;;;8.13;5.50;;;27.00;99.90;;;;;;5058036;28;20745;-84
2023/10/13 12:53:51;;;;;;;11.60;7.20;;;27.10;99.90;;;;;;5056362;28;20468;-80
2023/10/13 12:56:22;;;;;;;7.83;6.40;;;27.20;99.90;;;;;;5063757;28;20479;-80
2023/10/13 12:58:54;;;;;;;10.10;5.97;;;27.20;99.90;;;;;;5050083;28;20736;-80
2023/10/13 13:01:32;;;;;;;10.30;6.47;;;27.20;99.90;;;;;;5057926;28;20925;-84
2023/10/13 13:03:59;;;;;;;10.30;6.17;;;27.20;99.90;;;;;;5057766;28;20435;-80
2023/10/13 13:06:26;;;;;;;8.20;5.70;;;27.10;99.90;;;;;;5032356;28;20448;-80
2023/10/13 13:09:02;;;;;;;12.20;6.90;;;27.20;99.90;;;;;;5041140;28;20452;-80
2023/10/13 13:11:31;;;;;;;14.10;6.77;;;27.20;99.90;;;;;;5042143;28;20462;-80
2023/10/13 13:13:56;;;;;;;8.50;5.70;;;27.20;99.90;;;;;;5038743;28;20468;-80
2023/10/13 13:16:30;;;;;;;10.60;7.10;;;27.30;99.90;;;;;;5040754;28;20451;-80
2023/10/13 13:18:55;;;;;;;13.47;6.50;;;27.30;99.90;;;;;;5039616;28;20342;-83
2023/10/13 13:21:24;;;;;;;6.00;5.37;;;27.20;99.90;;;;;;5061800;28;20656;-79
2023/10/13 13:23:51;;;;;;;10.00;6.67;;;27.20;99.90;;;;;;5027939;28;20185;-83
2023/10/13 13:26:17;;;;;;;13.23;6.07;;;27.20;99.90;;;;;;5041981;28;20541;-79
2023/10/13 13:28:50;;;;;;;9.57;5.80;;;27.10;99.90;;;;;;5059001;28;20974;-83
2023/10/13 13:31:29;;;;;;;7.93;5.37;;;27.20;99.90;;;;;;5040664;28;20452;-80
2023/10/13 13:33:55;;;;;;;8.20;5.60;;;27.00;99.90;;;;;;5044306;28;21010;-80
2023/10/13 13:36:22;;;;;;;9.77;6.40;;;26.90;99.90;;;;;;5041881;28;20451;-83
2023/10/13 13:38:51;;;;;;;6.87;5.50;;;26.90;99.90;;;;;;5045768;28;20864;-79
2023/10/13 13:41:18;;;;;;;9.60;6.20;;;26.90;99.90;;;;;;5046163;28;20457;-80
2023/10/13 13:43:50;;;;;;;7.30;5.60;;;26.90;99.90;;;;;;5063047;28;20428;-83
2023/10/13 13:46:18;;;;;;;11.07;6.77;;;26.80;99.90;;;;;;5037046;28;20550;-85
2023/10/13 13:48:47;;;;;;;9.07;6.20;;;26.80;99.90;;;;;;5041157;28;20468;-86
2023/10/13 13:51:19;;;;;;;7.70;6.27;;;26.90;99.90;;;;;;5043195;28;20722;-86
2023/10/13 13:53:47;;;;;;;7.87;6.30;;;27.00;99.90;;;;;;5044959;28;20467;-78
2023/10/13 13:56:16;;;;;;;10.47;7.33;;;26.90;99.90;;;;;;5026504;28;20463;-86
2023/10/13 13:58:44;;;;;;;11.10;5.97;;;26.70;99.90;;;;;;5035228;28;20422;-86
2023/10/13 14:01:21;;;;;;;8.67;6.40;;;26.80;99.90;;;;;;5034185;28;20456;-79
2023/10/13 14:03:52;;;;;;;10.60;6.23;;;26.80;99.90;;;;;;5042575;28;20510;-86
2023/10/13 14:06:28;;;;;;;7.60;5.37;;;26.80;99.90;;;;;;5032406;28;20478;-79
2023/10/13 14:09:15;;;;;;;7.20;5.50;;;26.90;99.90;;;;;;5034593;28;20425;-86
2023/10/13 14:16:53;;;;;;;6.77;5.63;;;26.90;99.90;;;;;;5042915;28;20431;-79
2023/10/13 14:19:28;;;;;;;9.07;6.53;;;26.90;99.90;;;;;;5032247;28;20185;-79
2023/10/13 14:21:55;;;;;;;11.27;5.90;;;26.90;99.90;;;;;;5038609;28;20475;-79
2023/10/13 14:24:27;;;;;;;11.50;6.20;;;26.90;99.90;;;;;;5042392;28;20517;-86
2023/10/13 14:26:54;;;;;;;6.40;5.70;;;26.90;99.90;;;;;;5040313;28;21058;-86
2023/10/13 14:29:21;;;;;;;8.30;5.60;;;26.90;99.90;;;;;;5037967;28;20442;-86
2023/10/13 14:31:49;;;;;;;10.00;6.00;;;26.90;99.90;;;;;;5035931;28;20446;-89
2023/10/13 14:34:14;;;;;;;9.17;5.97;;;26.90;99.90;;;;;;5032933;28;20478;-78
2023/10/13 14:36:41;;;;;;;8.60;5.77;;;26.90;99.90;;;;;;5035906;28;21129;-89
2023/10/13 14:39:10;;;;;;;10.33;5.80;;;26.90;99.90;;;;;;5035409;28;20199;-86
2023/10/13 14:41:37;;;;;;;9.47;7.03;;;26.90;99.90;;;;;;5029879;28;20433;-83
2023/10/13 14:44:06;;;;;;;8.57;5.70;;;26.90;99.90;;;;;;5032890;28;20501;-79
2023/10/13 14:46:36;;;;;;;11.40;6.20;;;26.90;99.90;;;;;;5036023;28;20538;-89
2023/10/13 14:49:02;;;;;;;7.87;5.87;;;26.90;99.90;;;;;;5037573;28;20998;-90
2023/10/13 14:51:29;;;;;;;9.47;6.10;;;26.90;99.90;;;;;;5055337;28;21009;-91
2023/10/13 14:53:59;;;;;;;7.93;6.00;;;26.90;99.90;;;;;;5040041;28;20471;-79
2023/10/13 14:56:26;;;;;;;8.53;5.77;;;26.90;99.90;;;;;;5038148;28;20467;-78
2023/10/13 14:58:52;;;;;;;9.77;6.20;;;26.80;99.90;;;;;;5037046;28;21014;-78
2023/10/13 15:01:20;;;;;;;8.83;5.93;;;26.80;99.90;;;;;;5046247;28;20532;-79
2023/10/13 15:03:51;;;;;;;8.00;6.03;;;26.70;99.90;;;;;;5040592;28;20933;-91
2023/10/13 15:06:20;;;;;;;9.97;5.53;;;26.70;99.90;;;;;;5071134;28;20646;-86
2023/10/13 15:08:46;;;;;;;7.17;5.73;;;26.70;99.90;;;;;;5040501;28;20470;-87
2023/10/13 15:11:18;;;;;;;8.93;5.17;;;26.70;99.90;;;;;;5036615;28;20474;-87
2023/10/13 15:13:44;;;;;;;8.23;6.17;;;26.60;99.90;;;;;;5022572;28;20563;-87
2023/10/13 15:16:18;;;;;;;8.53;5.77;;;26.60;99.90;;;;;;5044647;28;20443;-78
2023/10/13 15:18:45;;;;;;;8.33;6.33;;;26.50;99.90;;;;;;5043568;28;20247;-78
2023/10/13 15:21:12;;;;;;;7.60;5.27;;;26.40;99.90;;;;;;5063994;28;20508;-86
2023/10/13 15:23:44;;;;;;;7.27;5.37;;;26.40;99.90;;;;;;5063652;28;20931;-78
2023/10/13 15:26:13;;;;;;;11.63;5.30;;;26.30;99.90;;;;;;5062603;28;20990;-78
2023/10/13 15:28:48;;;;;;;8.03;5.40;;;26.20;99.90;;;;;;5064533;28;20410;-78
2023/10/13 15:33:58;;;;;;;10.50;6.07;;;26.10;99.90;;;;;;5064617;28;20457;-87
2023/10/13 15:36:24;;;;;;;9.77;5.93;;;26.00;99.90;;;;;;5063819;28;20459;-87
2023/10/13 15:38:51;;;;;;;10.23;5.27;;;25.90;99.90;;;;;;5064371;28;20327;-78
2023/10/13 15:41:24;;;;;;;15.90;6.23;;;25.80;99.90;;;;;;5061816;28;20601;-78
2023/10/13 15:43:51;;;;;;;7.67;5.80;;;25.70;99.90;;;;;;5053277;28;20530;-86
2023/10/13 15:46:21;;;;;;;12.30;7.00;;;25.70;99.90;;;;;;5030643;28;20455;-86
2023/10/13 15:48:51;;;;;;;10.20;5.83;;;25.60;99.90;;;;;;5021945;28;20428;-87
2023/10/13 15:51:18;;;;;;;10.23;6.60;;;25.50;99.90;;;;;;5021865;28;20450;-78
2023/10/13 15:53:47;;;;;;;8.80;6.40;;;25.50;99.90;;;;;;5030517;28;20468;-78
2023/10/13 15:56:14;;;;;;;12.17;7.60;;;25.40;99.90;;;;;;5042473;28;20545;-87
2023/10/13 15:58:43;;;;;;;12.43;9.30;;;25.30;99.90;;;;;;5045703;28;20402;-78
2023/10/13 16:01:12;;;;;;;12.47;7.93;;;25.30;99.90;;;;;;5043023;28;20963;-87
2023/10/13 16:03:43;;;;;;;11.57;7.50;;;25.20;99.90;;;;;;5041638;28;20826;-78
2023/10/13 16:06:12;;;;;;;14.13;9.63;;;25.20;99.90;;;;;;5044153;28;20748;-87
2023/10/13 16:08:44;;;;;;;11.40;7.67;;;25.10;99.90;;;;;;5042958;28;20434;-78
2023/10/13 16:11:17;;;;;;;16.80;7.87;;;25.10;99.90;;;;;;5042611;28;20478;-87
2023/10/13 16:13:52;;;;;;;20.10;10.90;;;25.00;99.90;;;;;;5059552;28;20477;-86
2023/10/13 16:16:22;;;;;;;18.60;8.83;;;25.00;99.90;;;;;;5065270;28;20472;-86
2023/10/13 16:18:49;;;;;;;15.30;10.20;;;24.90;99.90;;;;;;5065408;28;21081;-78
2023/10/13 16:21:15;;;;;;;18.97;12.40;;;24.90;99.90;;;;;;5062882;28;20457;-78
2023/10/13 16:23:48;;;;;;;15.93;10.73;;;24.90;99.90;;;;;;5067048;28;20398;-85